Terminal Aerodrome Forecast
Issued by NWS

Home | Current Version | Previous Version | Graphics & Text | Print | Product List | Glossary On
Versions: 1 2 3 4 5 6 7 8 9 10 11 12 13 14 15 16 17 18 19 20
496
FTUS43 KABR 271002 AAD
TAFATY
TAF AMD
KATY 271002Z 2710/2806 02010KT P6SM VCTS SCT025CB OVC060
     FM271200 06006KT P6SM VCTS BKN030 BKN080CB OVC250
     FM271500 05006KT P6SM BKN050
     FM272000 03010KT P6SM BKN150
     FM280500 01006KT P6SM BKN200=

USA.gov is the U.S. government's official web portal to all federal, state and local government web resources and services.